createdAt,value
2023-02-12T00:01:28.700Z,9.90
2023-02-12T00:03:55.706Z,8.23
2023-02-12T00:06:22.943Z,8.90
2023-02-12T00:08:51.548Z,8.30
2023-02-12T00:11:24.567Z,9.77
2023-02-12T00:13:51.797Z,10.03
2023-02-12T00:16:24.699Z,9.18
2023-02-12T00:18:53.247Z,8.93
2023-02-12T00:21:25.361Z,9.10
2023-02-12T00:23:56.703Z,9.07
2023-02-12T00:26:26.110Z,9.03
2023-02-12T00:28:53.197Z,8.03
2023-02-12T00:31:23.781Z,9.23
2023-02-12T00:33:53.536Z,9.67
2023-02-12T00:36:25.118Z,9.33
2023-02-12T00:38:55.796Z,11.20
2023-02-12T00:41:25.489Z,9.23
2023-02-12T00:43:52.277Z,11.03
2023-02-12T00:46:19.080Z,9.50
2023-02-12T00:48:48.543Z,8.90
2023-02-12T00:51:15.446Z,9.57
2023-02-12T00:53:44.356Z,11.53
2023-02-12T00:56:11.089Z,9.70
2023-02-12T00:58:37.772Z,8.60
2023-02-12T01:01:04.590Z,9.63
2023-02-12T01:03:33.736Z,10.03
2023-02-12T01:06:02.682Z,10.77
2023-02-12T01:08:30.219Z,8.97
2023-02-12T01:10:59.249Z,8.23
2023-02-12T01:13:27.161Z,10.47
2023-02-12T01:16:09.393Z,10.27
2023-02-12T01:18:37.468Z,11.27
2023-02-12T01:21:09.999Z,10.13
2023-02-12T01:23:41.631Z,9.50
2023-02-12T01:26:10.893Z,8.70
2023-02-12T01:28:39.715Z,10.57
2023-02-12T01:31:14.596Z,10.87
2023-02-12T01:33:44.695Z,10.83
2023-02-12T01:36:11.568Z,8.63
2023-02-12T01:38:38.406Z,9.33
2023-02-12T01:41:12.178Z,10.30
2023-02-12T01:43:39.341Z,8.00
2023-02-12T01:46:07.320Z,8.53
2023-02-12T01:48:42.122Z,7.80
2023-02-12T01:51:15.642Z,8.20
2023-02-12T01:53:51.867Z,8.43
2023-02-12T01:56:21.758Z,9.20
2023-02-12T01:58:51.150Z,8.13
2023-02-12T02:01:24.667Z,7.87
2023-02-12T02:03:55.758Z,9.20
2023-02-12T02:06:29.746Z,9.27
2023-02-12T02:08:59.841Z,7.80
2023-02-12T02:11:48.548Z,8.93
2023-02-12T02:14:33.519Z,8.68
2023-02-12T02:17:03.035Z,7.63
2023-02-12T02:20:03.688Z,7.87
2023-02-12T02:22:35.004Z,7.37
2023-02-12T02:25:28.565Z,8.07
2023-02-12T02:28:25.561Z,8.43
2023-02-12T02:30:58.205Z,11.37
2023-02-12T02:33:33.784Z,8.70
2023-02-12T02:36:10.666Z,7.60
2023-02-12T02:38:40.367Z,8.47
2023-02-12T02:41:19.442Z,7.67
2023-02-12T02:43:51.841Z,8.13
2023-02-12T02:46:27.470Z,7.23
2023-02-12T02:49:01.924Z,8.37
2023-02-12T02:51:34.618Z,8.38
2023-02-12T02:54:11.435Z,8.50
2023-02-12T02:56:43.996Z,7.77
2023-02-12T02:59:34.985Z,7.87
2023-02-12T03:02:23.811Z,8.97
2023-02-12T03:04:54.785Z,8.45
2023-02-12T03:07:36.598Z,7.60
2023-02-12T03:10:12.370Z,9.50
2023-02-12T03:12:46.865Z,9.83
2023-02-12T03:15:20.903Z,9.63
2023-02-12T03:17:50.206Z,8.07
2023-02-12T03:20:43.772Z,9.10
2023-02-12T03:23:20.380Z,7.30
2023-02-12T03:25:57.601Z,9.23
2023-02-12T03:28:34.102Z,8.87
2023-02-12T03:31:19.107Z,9.17
2023-02-12T03:34:07.697Z,8.77
2023-02-12T03:36:55.485Z,7.00
2023-02-12T03:39:37.011Z,7.73
2023-02-12T03:42:11.406Z,9.20
2023-02-12T03:44:54.222Z,8.52
2023-02-12T03:47:57.489Z,8.57
2023-02-12T03:50:32.563Z,8.00
2023-02-12T03:52:59.292Z,6.80
2023-02-12T03:55:26.404Z,7.23
2023-02-12T03:58:00.529Z,7.83
2023-02-12T04:00:30.231Z,8.33
2023-02-12T04:02:59.877Z,8.13
2023-02-12T04:05:33.309Z,8.13
2023-02-12T04:08:02.380Z,7.40
2023-02-12T04:10:38.502Z,8.18
2023-02-12T04:13:36.880Z,7.83
2023-02-12T04:16:47.014Z,7.77
2023-02-12T04:19:25.717Z,8.30
2023-02-12T04:21:58.379Z,9.53
2023-02-12T04:24:41.658Z,9.90
2023-02-12T04:27:46.696Z,7.70
2023-02-12T04:30:19.337Z,7.63
2023-02-12T04:33:16.614Z,9.53
2023-02-12T04:35:50.871Z,7.90
2023-02-12T04:38:23.257Z,7.30
2023-02-12T04:40:51.081Z,10.03
2023-02-12T04:43:28.933Z,8.73
2023-02-12T04:45:58.319Z,8.67
2023-02-12T04:48:27.402Z,9.57
2023-02-12T04:50:56.332Z,9.30
2023-02-12T04:53:25.337Z,9.50
2023-02-12T04:55:55.523Z,9.20
2023-02-12T04:58:22.431Z,8.97
2023-02-12T05:00:51.616Z,9.87
2023-02-12T05:03:18.268Z,9.15
2023-02-12T05:05:47.408Z,10.07
2023-02-12T05:08:16.358Z,9.17
2023-02-12T05:10:45.276Z,9.47
2023-02-12T05:13:12.013Z,9.40
2023-02-12T05:15:39.828Z,9.93
2023-02-12T05:18:06.527Z,10.97
2023-02-12T05:20:35.520Z,9.40
2023-02-12T05:23:02.159Z,9.50
2023-02-12T05:25:28.901Z,9.50
2023-02-12T05:27:57.019Z,9.32
2023-02-12T05:30:24.898Z,9.17
2023-02-12T05:32:51.592Z,11.50
2023-02-12T05:35:20.432Z,11.50
2023-02-12T05:37:47.151Z,9.67
2023-02-12T05:40:16.913Z,10.67
2023-02-12T05:42:43.606Z,11.10
2023-02-12T05:45:12.684Z,9.33
2023-02-12T05:47:41.882Z,10.43
2023-02-12T05:50:08.945Z,10.67
2023-02-12T05:52:38.158Z,11.00
2023-02-12T05:55:05.206Z,10.67
2023-02-12T05:57:34.100Z,13.00
2023-02-12T06:00:01.395Z,13.33
2023-02-12T06:02:29.184Z,15.47
2023-02-12T06:04:58.337Z,13.47
2023-02-12T06:07:25.004Z,11.93
2023-02-12T06:09:56.587Z,12.33
2023-02-12T06:12:29.887Z,12.10
2023-02-12T06:14:56.604Z,12.73
2023-02-12T06:17:23.741Z,13.10
2023-02-12T06:19:50.449Z,11.80
2023-02-12T06:22:17.559Z,12.50
2023-02-12T06:24:47.093Z,13.13
2023-02-12T06:27:16.710Z,12.50
2023-02-12T06:29:43.788Z,13.03
2023-02-12T06:32:15.621Z,13.70
2023-02-12T06:34:42.814Z,12.07
2023-02-12T06:37:09.918Z,14.83
2023-02-12T06:39:36.624Z,13.50
2023-02-12T06:42:03.441Z,14.30
2023-02-12T06:44:32.475Z,12.10
2023-02-12T06:46:59.299Z,13.73
2023-02-12T06:49:26.103Z,13.27
2023-02-12T06:51:55.341Z,12.80
2023-02-12T06:54:24.119Z,15.73
2023-02-12T06:56:53.027Z,13.33
2023-02-12T06:59:21.133Z,15.77
2023-02-12T07:01:48.271Z,11.67
2023-02-12T07:04:15.545Z,16.47
2023-02-12T07:06:42.805Z,13.13
2023-02-12T07:09:12.406Z,12.70
2023-02-12T07:11:39.688Z,14.63
2023-02-12T07:14:07.380Z,13.43
2023-02-12T07:16:34.666Z,12.10
2023-02-12T07:19:01.857Z,14.10
2023-02-12T07:21:32.145Z,12.50
2023-02-12T07:23:59.406Z,12.47
2023-02-12T07:26:26.479Z,12.43
2023-02-12T07:28:53.588Z,15.03
2023-02-12T07:31:22.423Z,14.30
2023-02-12T07:33:56.392Z,15.20
2023-02-12T07:36:24.546Z,13.67
2023-02-12T07:38:51.712Z,14.10
2023-02-12T07:41:20.503Z,13.00
2023-02-12T07:43:48.768Z,13.57
2023-02-12T07:46:18.660Z,12.43
2023-02-12T07:48:49.335Z,13.70
2023-02-12T07:51:19.180Z,14.37
2023-02-12T07:53:48.903Z,14.93
2023-02-12T07:56:17.097Z,16.03
2023-02-12T07:58:47.164Z,18.83
2023-02-12T08:01:14.005Z,19.57
2023-02-12T08:03:45.705Z,17.70
2023-02-12T08:06:17.029Z,18.83
2023-02-12T08:08:44.299Z,18.07
2023-02-12T08:11:12.550Z,19.00
2023-02-12T08:13:39.737Z,23.77
2023-02-12T08:16:12.016Z,18.63
2023-02-12T08:18:41.549Z,21.33
2023-02-12T08:21:12.410Z,20.67
2023-02-12T08:23:42.048Z,19.53
2023-02-12T08:26:17.263Z,19.90
2023-02-12T08:28:46.814Z,20.27
2023-02-12T08:31:25.828Z,19.87
2023-02-12T08:33:53.579Z,21.43
2023-02-12T08:36:23.178Z,21.40
2023-02-12T08:38:50.273Z,21.23
2023-02-12T08:41:22.324Z,19.50
2023-02-12T08:43:50.008Z,20.53
2023-02-12T08:46:18.454Z,23.07
2023-02-12T08:48:45.569Z,20.37
2023-02-12T08:51:18.406Z,21.37
2023-02-12T08:53:46.508Z,21.60
2023-02-12T08:56:16.800Z,20.23
2023-02-12T08:58:44.219Z,23.03
2023-02-12T09:01:16.367Z,20.77
2023-02-12T09:03:44.121Z,21.67
2023-02-12T09:06:11.255Z,21.67
2023-02-12T09:08:42.697Z,21.50
2023-02-12T09:11:12.528Z,24.27
2023-02-12T09:13:40.890Z,21.77
2023-02-12T09:16:08.516Z,22.17
2023-02-12T09:18:35.930Z,21.77
2023-02-12T09:21:10.023Z,22.47
2023-02-12T09:23:40.015Z,19.77
2023-02-12T09:26:07.988Z,19.70
2023-02-12T09:28:35.871Z,22.53
2023-02-12T09:31:10.013Z,24.83
2023-02-12T09:33:38.869Z,24.05
2023-02-12T09:36:12.389Z,22.50
2023-02-12T09:38:39.578Z,20.40
2023-02-12T09:41:32.344Z,23.37
2023-02-12T09:44:11.917Z,22.27
2023-02-12T09:46:51.922Z,20.70
2023-02-12T09:49:31.286Z,20.73
2023-02-12T09:51:58.708Z,28.67
2023-02-12T09:54:29.768Z,29.33
2023-02-12T09:56:59.559Z,24.38
2023-02-12T09:59:31.695Z,22.90
2023-02-12T10:02:03.820Z,22.97
2023-02-12T10:04:33.052Z,22.00
2023-02-12T10:07:31.083Z,18.93
2023-02-12T10:10:00.538Z,16.30
2023-02-12T10:12:39.150Z,18.33
2023-02-12T10:15:32.723Z,15.80
2023-02-12T10:18:08.371Z,17.97
2023-02-12T10:20:42.723Z,15.47
2023-02-12T10:23:40.017Z,15.43
2023-02-12T10:26:21.865Z,15.13
2023-02-12T10:28:49.650Z,14.43
2023-02-12T10:31:31.290Z,11.67
2023-02-12T10:33:58.925Z,14.07
2023-02-12T10:36:37.628Z,13.23
2023-02-12T10:39:24.353Z,11.03
2023-02-12T10:41:59.764Z,10.00
2023-02-12T10:44:27.604Z,13.33
2023-02-12T10:46:56.534Z,13.27
2023-02-12T10:49:23.821Z,11.23
2023-02-12T10:52:16.302Z,11.00
2023-02-12T10:54:50.901Z,12.53
2023-02-12T10:57:29.816Z,10.60
2023-02-12T11:00:14.795Z,9.70
2023-02-12T11:03:04.105Z,18.17
2023-02-12T11:05:34.210Z,8.67
2023-02-12T11:08:01.468Z,9.10
2023-02-12T11:10:33.287Z,9.63
2023-02-12T11:13:05.755Z,9.70
2023-02-12T11:15:46.763Z,12.17
2023-02-12T11:18:21.518Z,10.10
2023-02-12T11:20:59.695Z,10.90
2023-02-12T11:23:32.222Z,10.60
2023-02-12T11:26:23.359Z,13.03
2023-02-12T11:29:02.343Z,13.73
2023-02-12T11:31:30.722Z,15.43
2023-02-12T11:34:09.164Z,15.63
2023-02-12T11:36:37.741Z,15.50
2023-02-12T11:39:07.666Z,13.80
2023-02-12T11:41:36.536Z,13.93
2023-02-12T11:44:14.889Z,16.40
2023-02-12T11:46:48.513Z,14.83
2023-02-12T11:49:24.247Z,15.57
2023-02-12T11:51:51.589Z,24.77
2023-02-12T11:54:20.982Z,23.33
2023-02-12T11:56:48.535Z,19.43
2023-02-12T11:59:40.913Z,18.77
2023-02-12T12:02:30.326Z,19.57
2023-02-12T12:05:11.832Z,18.23
2023-02-12T12:07:42.912Z,16.93
2023-02-12T12:10:20.139Z,17.57
2023-02-12T12:13:01.602Z,17.45
2023-02-12T12:15:48.794Z,14.83
2023-02-12T12:18:34.124Z,15.47
2023-02-12T12:21:09.538Z,14.77
2023-02-12T12:24:03.354Z,15.17
2023-02-12T12:26:34.667Z,16.27
2023-02-12T12:29:16.923Z,12.77
2023-02-12T12:31:47.152Z,11.30
2023-02-12T12:34:17.140Z,10.67
2023-02-12T12:36:51.569Z,13.13
2023-02-12T12:39:55.865Z,13.07
2023-02-12T12:42:56.775Z,9.30
2023-02-12T12:46:01.066Z,12.13
2023-02-12T12:48:49.398Z,9.57
2023-02-12T12:51:37.533Z,11.90
2023-02-12T12:54:19.207Z,10.93
2023-02-12T12:57:10.351Z,9.07
2023-02-12T12:59:58.737Z,8.43
2023-02-12T13:02:38.304Z,6.67
2023-02-12T13:05:42.981Z,6.40
2023-02-12T13:08:21.030Z,8.20
2023-02-12T13:11:11.354Z,5.80
2023-02-12T13:13:41.712Z,6.50
2023-02-12T13:16:23.257Z,7.83
2023-02-12T13:19:08.425Z,6.20
2023-02-12T13:21:38.186Z,6.13
2023-02-12T13:24:31.911Z,6.80
2023-02-12T13:27:09.069Z,6.10
2023-02-12T13:29:41.804Z,9.13
2023-02-12T13:32:19.492Z,8.02
2023-02-12T13:34:46.707Z,6.90
2023-02-12T13:37:25.564Z,5.67
2023-02-12T13:39:54.749Z,7.60
2023-02-12T13:42:39.586Z,6.13
2023-02-12T13:45:30.450Z,6.83
2023-02-12T13:48:18.262Z,6.25
2023-02-12T13:50:58.260Z,5.93
2023-02-12T13:53:32.385Z,8.00
2023-02-12T13:56:30.542Z,5.17
2023-02-12T13:59:00.342Z,6.10
2023-02-12T14:01:47.539Z,4.93
2023-02-12T14:04:29.945Z,4.88
2023-02-12T14:07:12.614Z,5.87
2023-02-12T14:09:53.632Z,5.40
2023-02-12T14:12:26.545Z,5.00
2023-02-12T14:14:55.708Z,5.93
2023-02-12T14:17:28.490Z,4.77
2023-02-12T14:19:56.549Z,5.53
2023-02-12T14:22:43.807Z,6.50
2023-02-12T14:25:25.449Z,6.67
2023-02-12T14:28:10.531Z,6.83
2023-02-12T14:30:40.497Z,4.27
2023-02-12T14:33:07.272Z,5.07
2023-02-12T14:35:34.128Z,4.97
2023-02-12T14:38:22.103Z,4.93
2023-02-12T14:40:52.630Z,4.70
2023-02-12T14:43:54.592Z,5.43
2023-02-12T14:46:24.312Z,5.17
2023-02-12T14:48:55.867Z,5.17
2023-02-12T14:51:22.480Z,6.13
2023-02-12T14:53:50.749Z,5.75
2023-02-12T14:56:24.377Z,6.40
2023-02-12T14:58:53.663Z,4.90
2023-02-12T15:01:33.854Z,5.07
2023-02-12T15:04:11.423Z,5.17
2023-02-12T15:06:45.845Z,5.22
2023-02-12T15:09:21.417Z,5.07
2023-02-12T15:11:55.340Z,4.70
2023-02-12T15:14:31.816Z,6.60
2023-02-12T15:17:11.044Z,6.07
2023-02-12T15:19:59.826Z,9.67
2023-02-12T15:22:40.184Z,4.17
2023-02-12T15:25:26.291Z,5.35
2023-02-12T15:28:14.235Z,6.63
2023-02-12T15:30:45.753Z,4.80
2023-02-12T15:33:28.709Z,5.73
2023-02-12T15:35:58.748Z,4.53
2023-02-12T15:38:43.696Z,4.37
2023-02-12T15:41:32.388Z,4.03
2023-02-12T15:44:01.693Z,4.27
2023-02-12T15:46:30.276Z,4.57
2023-02-12T15:48:57.966Z,5.43
2023-02-12T15:51:27.470Z,4.37
2023-02-12T15:53:59.193Z,4.00
2023-02-12T15:56:26.484Z,5.27
2023-02-12T15:58:58.694Z,4.45
2023-02-12T16:01:28.090Z,4.63
2023-02-12T16:04:03.116Z,4.63
2023-02-12T16:06:34.326Z,6.47
2023-02-12T16:09:08.713Z,4.00
2023-02-12T16:11:36.850Z,3.72
2023-02-12T16:14:10.410Z,4.17
2023-02-12T16:16:48.946Z,5.23
2023-02-12T16:19:32.929Z,3.70
2023-02-12T16:22:05.944Z,4.17
2023-02-12T16:24:40.586Z,3.37
2023-02-12T16:27:28.611Z,3.70
2023-02-12T16:29:58.281Z,5.27
2023-02-12T16:32:30.030Z,4.72
2023-02-12T16:35:09.669Z,3.93
2023-02-12T16:37:36.297Z,4.57
2023-02-12T16:40:15.554Z,4.73
2023-02-12T16:42:47.949Z,3.87
2023-02-12T16:45:26.690Z,3.97
2023-02-12T16:48:13.085Z,3.23
2023-02-12T16:50:46.769Z,3.77
2023-02-12T16:53:36.055Z,3.93
2023-02-12T16:56:04.909Z,4.37
2023-02-12T16:58:31.656Z,2.63
2023-02-12T17:01:05.918Z,3.27
2023-02-12T17:03:33.630Z,2.97
2023-02-12T17:06:02.653Z,2.70
2023-02-12T17:08:32.599Z,2.60
2023-02-12T17:10:59.292Z,2.80
2023-02-12T17:13:30.937Z,3.10
2023-02-12T17:16:04.063Z,3.07
2023-02-12T17:18:32.793Z,2.37
2023-02-12T17:21:03.393Z,2.70
2023-02-12T17:23:30.554Z,1.97
2023-02-12T17:25:57.559Z,1.83
2023-02-12T17:28:27.239Z,3.83
2023-02-12T17:30:54.319Z,2.30
2023-02-12T17:33:23.414Z,2.70
2023-02-12T17:35:52.585Z,2.37
2023-02-12T17:38:19.374Z,2.50
2023-02-12T17:40:50.633Z,2.17
2023-02-12T17:43:17.518Z,3.73
2023-02-12T17:45:44.347Z,2.00
2023-02-12T17:48:17.523Z,2.40
2023-02-12T17:50:57.839Z,2.37
2023-02-12T17:53:26.946Z,2.10
2023-02-12T17:55:53.942Z,3.10
2023-02-12T17:58:20.633Z,2.27
2023-02-12T18:00:47.260Z,2.40
2023-02-12T18:03:13.966Z,2.20
2023-02-12T18:05:43.696Z,2.77
2023-02-12T18:08:10.743Z,2.03
2023-02-12T18:10:44.552Z,2.30
2023-02-12T18:13:11.696Z,2.67
2023-02-12T18:15:40.764Z,3.00
2023-02-12T18:18:07.782Z,2.92
2023-02-12T18:20:35.074Z,2.63
2023-02-12T18:23:03.318Z,4.10
2023-02-12T18:25:30.041Z,3.00
2023-02-12T18:27:56.797Z,2.17
2023-02-12T18:30:25.888Z,2.20
2023-02-12T18:32:52.603Z,2.42
2023-02-12T18:35:19.450Z,2.10
2023-02-12T18:37:48.518Z,2.20
2023-02-12T18:40:15.563Z,2.43
2023-02-12T18:42:45.066Z,2.10
2023-02-12T18:45:14.138Z,2.23
2023-02-12T18:47:40.842Z,3.23
2023-02-12T18:50:12.838Z,2.27
2023-02-12T18:52:42.033Z,1.90
2023-02-12T18:55:08.934Z,2.07
2023-02-12T18:57:35.662Z,2.50
2023-02-12T19:00:07.521Z,2.57
2023-02-12T19:02:36.445Z,2.57
2023-02-12T19:05:03.153Z,2.27
2023-02-12T19:07:34.762Z,3.07
2023-02-12T19:10:01.579Z,2.40
2023-02-12T19:12:28.438Z,2.10
2023-02-12T19:14:57.678Z,2.50
2023-02-12T19:17:26.856Z,2.47
2023-02-12T19:19:55.938Z,2.17
2023-02-12T19:22:22.603Z,2.50
2023-02-12T19:24:52.121Z,2.97
2023-02-12T19:27:18.844Z,2.23
2023-02-12T19:29:47.704Z,2.07
2023-02-12T19:32:14.475Z,2.37
2023-02-12T19:34:41.191Z,2.60
2023-02-12T19:37:10.932Z,2.17
2023-02-12T19:39:40.837Z,3.57
2023-02-12T19:42:10.381Z,2.43
2023-02-12T19:44:37.107Z,2.40
2023-02-12T19:47:06.911Z,2.83
2023-02-12T19:49:38.236Z,2.87
2023-02-12T19:52:05.147Z,2.27
2023-02-12T19:54:31.937Z,2.57
2023-02-12T19:57:01.156Z,3.13
2023-02-12T19:59:27.984Z,3.20
2023-02-12T20:01:57.173Z,2.70
2023-02-12T20:04:27.107Z,3.17
2023-02-12T20:06:54.581Z,5.40
2023-02-12T20:09:22.414Z,3.13
2023-02-12T20:11:49.585Z,3.63
2023-02-12T20:14:16.979Z,2.90
2023-02-12T20:16:48.361Z,3.83
2023-02-12T20:19:19.335Z,5.43
2023-02-12T20:21:54.307Z,6.90
2023-02-12T20:24:23.045Z,3.20
2023-02-12T20:26:49.998Z,3.72
2023-02-12T20:29:16.737Z,4.10
2023-02-12T20:31:45.129Z,3.50
2023-02-12T20:34:17.134Z,3.37
2023-02-12T20:36:47.501Z,4.23
2023-02-12T20:39:16.574Z,4.07
2023-02-12T20:41:43.358Z,3.90
2023-02-12T20:44:15.777Z,3.90
2023-02-12T20:46:45.261Z,3.50
2023-02-12T20:49:13.940Z,4.03
2023-02-12T20:51:41.350Z,4.60
2023-02-12T20:54:10.590Z,4.17
2023-02-12T20:56:37.931Z,4.03
2023-02-12T20:59:08.847Z,5.13
2023-02-12T21:01:37.961Z,7.13
2023-02-12T21:04:09.469Z,4.43
2023-02-12T21:06:36.918Z,3.85
2023-02-12T21:09:04.024Z,4.37
2023-02-12T21:11:30.988Z,3.93
2023-02-12T21:14:12.427Z,3.63
2023-02-12T21:16:48.574Z,4.43
2023-02-12T21:19:15.294Z,4.00
2023-02-12T21:21:45.168Z,3.67
2023-02-12T21:24:18.023Z,4.83
2023-02-12T21:26:47.415Z,5.20
2023-02-12T21:29:14.384Z,3.93
2023-02-12T21:31:44.512Z,4.60
2023-02-12T21:34:19.220Z,4.17
2023-02-12T21:36:47.375Z,5.60
2023-02-12T21:39:25.400Z,4.53
2023-02-12T21:41:57.737Z,3.77
2023-02-12T21:44:26.083Z,4.33
2023-02-12T21:46:55.976Z,4.03
2023-02-12T21:49:26.487Z,4.33
2023-02-12T21:52:01.958Z,4.23
2023-02-12T21:54:29.982Z,4.03
2023-02-12T21:56:57.194Z,5.03
2023-02-12T21:59:26.401Z,4.53
2023-02-12T22:01:58.595Z,4.20
2023-02-12T22:04:25.893Z,4.53
2023-02-12T22:06:52.880Z,4.17
2023-02-12T22:09:22.039Z,5.37
2023-02-12T22:11:49.766Z,4.90
2023-02-12T22:14:19.737Z,4.40
2023-02-12T22:16:51.683Z,4.60
2023-02-12T22:19:19.094Z,4.67
2023-02-12T22:21:45.862Z,4.33
2023-02-12T22:24:17.997Z,4.40
2023-02-12T22:26:45.043Z,4.43
2023-02-12T22:29:17.805Z,4.87
2023-02-12T22:31:47.351Z,5.90
2023-02-12T22:34:17.089Z,4.40
2023-02-12T22:36:44.657Z,4.60
2023-02-12T22:39:13.313Z,4.20
2023-02-12T22:41:41.905Z,4.87
2023-02-12T22:44:16.274Z,4.90
2023-02-12T22:46:46.200Z,4.60
2023-02-12T22:49:15.640Z,4.27
2023-02-12T22:51:42.566Z,4.10
2023-02-12T22:54:17.151Z,3.93
2023-02-12T22:56:45.081Z,3.97
2023-02-12T22:59:16.371Z,5.23
2023-02-12T23:01:47.811Z,7.93
2023-02-12T23:04:16.478Z,6.80
2023-02-12T23:06:46.078Z,6.03
2023-02-12T23:09:16.655Z,7.77
2023-02-12T23:11:43.417Z,5.70
2023-02-12T23:14:10.372Z,7.27
2023-02-12T23:16:39.449Z,6.47
2023-02-12T23:19:06.356Z,6.20
2023-02-12T23:21:33.082Z,7.60
2023-02-12T23:24:00.190Z,6.20
2023-02-12T23:26:28.332Z,8.20
2023-02-12T23:28:55.604Z,7.80
2023-02-12T23:31:22.868Z,7.30
2023-02-12T23:33:49.628Z,6.40
2023-02-12T23:36:18.460Z,8.33
2023-02-12T23:38:45.146Z,6.87
2023-02-12T23:41:12.023Z,7.10
2023-02-12T23:43:38.729Z,6.73
2023-02-12T23:46:05.751Z,6.30
2023-02-12T23:48:34.790Z,7.33
2023-02-12T23:51:03.979Z,7.80
2023-02-12T23:53:32.880Z,6.17
2023-02-12T23:56:01.994Z,6.20
2023-02-12T23:58:30.925Z,6.43
